首页
METAR-TAF:

METAR-TAF

机场 :

劳德代尔堡-好莱坞国际机场

劳德代尔堡, 佛罗里达州, 美国

纬度: 26-04-05N, 经度: 080-09-09W, 海拔: 3米

当前天气观测

该预报发布于32分钟前的02:53 UTC
风速8节,风向
温度 28°C
湿度 74%
气压 1018 hPa
能見度: 16.1公里
散云层高于2600英尺
多云层高于25000英尺

METAR: KFLL 220253Z 08008KT 10SM SCT026 BKN250 28/23 A3005 RMK AO2 SLP175 T02780228 51004

时间: 23:25 (03:25 UTC)

预报

该预报发布于3分钟前的03:22 UTC
预报有效从22日的 03点(UTC)到 23日的 06点(UTC)
风速8节,风向
能見度: 10公里
散云层高于2500英尺
散云层高于25000英尺
从 22日的 1000点(UTC)
风速6节,风向
能見度: 10公里
散云层高于2500英尺
散云层高于5000英尺
附近有阵雨
从 22日的 1600点(UTC)
风速12节,风向
能見度: 10公里
散云层高于3000英尺, 积雨云.
散云层高于5000英尺
附近有雷暴
从 22日的 2300点(UTC)
风速10节,风向东转东北
能見度: 10公里
散云层高于2500英尺
多云层高于10000英尺
附近有阵雨

TAF: KFLL 220322Z 2203/2306 09008KT P6SM SCT025 SCT250 FM221000 08006KT P6SM VCSH SCT025 SCT050 FM221600 10012KT P6SM VCTS SCT030CB SCT050 FM222300 07010KT P6SM VCSH SCT025 BKN100

超过4000个机场的气象观测和天气预报(METAR&TAF报告)。

可查询的气象台以黄色和红色小点在地图上表示。

将鼠标移到小点上方,可查看气象台名称。

然后点击查看天气观测和预报。

如需切换地图:点击带黑十字的绿色按钮放大地图;点击带横线的绿色按钮缩小地图;或者点击绿色箭头查看邻近地区的地图。


METAR-TAF: